sensor_id;sensor_type;location;lat;lon;timestamp;pressure;altitude;pressure_sealevel;temperature;humidity
72921;BME280;61064;51.654;5.476;2023-04-16T00:00:36;102163.19;;;8.34;79.15
72921;BME280;61064;51.654;5.476;2023-04-16T00:03:01;102193.00;;;8.53;79.13
72921;BME280;61064;51.654;5.476;2023-04-16T00:05:26;102199.34;;;8.56;79.33
72921;BME280;61064;51.654;5.476;2023-04-16T00:07:52;102213.97;;;8.69;79.52
72921;BME280;61064;51.654;5.476;2023-04-16T00:10:17;102173.38;;;8.48;79.43
72921;BME280;61064;51.654;5.476;2023-04-16T00:12:43;102211.31;;;8.69;79.31
72921;BME280;61064;51.654;5.476;2023-04-16T00:15:08;102205.81;;;8.64;79.44
72921;BME280;61064;51.654;5.476;2023-04-16T00:17:34;102181.53;;;8.52;79.32
72921;BME280;61064;51.654;5.476;2023-04-16T00:19:59;102213.97;;;8.69;79.50
72921;BME280;61064;51.654;5.476;2023-04-16T00:22:25;102207.56;;;8.64;79.73
72921;BME280;61064;51.654;5.476;2023-04-16T00:24:50;102199.44;;;8.59;79.63
72921;BME280;61064;51.654;5.476;2023-04-16T00:27:17;102197.63;;;8.58;79.79
72921;BME280;61064;51.654;5.476;2023-04-16T00:29:43;102185.81;;;8.49;79.69
72921;BME280;61064;51.654;5.476;2023-04-16T00:32:08;102164.34;;;8.43;79.82
72921;BME280;61064;51.654;5.476;2023-04-16T00:34:33;102219.38;;;8.72;79.78
72921;BME280;61064;51.654;5.476;2023-04-16T00:36:59;102141.84;;;8.31;79.51
72921;BME280;61064;51.654;5.476;2023-04-16T00:39:24;102186.31;;;8.62;79.70
72921;BME280;61064;51.654;5.476;2023-04-16T00:41:50;102177.28;;;8.57;80.05
72921;BME280;61064;51.654;5.476;2023-04-16T00:44:15;102222.13;;;8.75;79.99
72921;BME280;61064;51.654;5.476;2023-04-16T00:46:41;102196.91;;;8.62;80.16
72921;BME280;61064;51.654;5.476;2023-04-16T00:49:06;102157.31;;;8.43;79.94
72921;BME280;61064;51.654;5.476;2023-04-16T00:51:34;102166.47;;;8.51;80.21
72921;BME280;61064;51.654;5.476;2023-04-16T00:53:59;102207.09;;;8.75;80.32
72921;BME280;61064;51.654;5.476;2023-04-16T00:56:26;102187.09;;;8.60;80.29
72921;BME280;61064;51.654;5.476;2023-04-16T00:58:53;102153.97;;;8.49;80.59
72921;BME280;61064;51.654;5.476;2023-04-16T01:01:18;102177.53;;;8.65;80.22
72921;BME280;61064;51.654;5.476;2023-04-16T01:03:47;102156.75;;;8.52;80.34
72921;BME280;61064;51.654;5.476;2023-04-16T01:06:13;102148.72;;;8.50;80.71
72921;BME280;61064;51.654;5.476;2023-04-16T01:08:39;102191.25;;;8.77;80.68
72921;BME280;61064;51.654;5.476;2023-04-16T01:11:05;102191.09;;;8.72;80.71
72921;BME280;61064;51.654;5.476;2023-04-16T01:13:32;102189.13;;;8.67;80.86
72921;BME280;61064;51.654;5.476;2023-04-16T01:15:58;102171.31;;;8.63;80.92
72921;BME280;61064;51.654;5.476;2023-04-16T01:18:24;102192.25;;;8.81;80.96
72921;BME280;61064;51.654;5.476;2023-04-16T01:20:50;102197.53;;;8.79;81.17
72921;BME280;61064;51.654;5.476;2023-04-16T01:23:16;102192.91;;;8.73;81.10
72921;BME280;61064;51.654;5.476;2023-04-16T01:25:45;102206.38;;;8.80;81.25
72921;BME280;61064;51.654;5.476;2023-04-16T01:28:11;102134.41;;;8.45;81.28
72921;BME280;61064;51.654;5.476;2023-04-16T01:30:36;102197.56;;;8.81;81.26
72921;BME280;61064;51.654;5.476;2023-04-16T01:33:02;102172.06;;;8.60;81.38
72921;BME280;61064;51.654;5.476;2023-04-16T01:35:27;102211.69;;;8.80;81.73
72921;BME280;61064;51.654;5.476;2023-04-16T01:37:53;102167.59;;;8.58;81.48
72921;BME280;61064;51.654;5.476;2023-04-16T01:40:18;102198.06;;;8.69;81.72
72921;BME280;61064;51.654;5.476;2023-04-16T01:42:44;102189.88;;;8.63;81.82
72921;BME280;61064;51.654;5.476;2023-04-16T01:45:10;102210.78;;;8.79;81.83
72921;BME280;61064;51.654;5.476;2023-04-16T01:47:35;102215.25;;;8.80;81.89
72921;BME280;61064;51.654;5.476;2023-04-16T01:50:01;102188.50;;;8.74;81.94
72921;BME280;61064;51.654;5.476;2023-04-16T01:52:27;102189.22;;;8.70;82.15
72921;BME280;61064;51.654;5.476;2023-04-16T01:54:52;102200.72;;;8.70;81.81
72921;BME280;61064;51.654;5.476;2023-04-16T01:57:18;102180.03;;;8.60;82.14
72921;BME280;61064;51.654;5.476;2023-04-16T01:59:43;102166.63;;;8.56;82.31
72921;BME280;61064;51.654;5.476;2023-04-16T02:02:10;102210.88;;;8.82;81.97
72921;BME280;61064;51.654;5.476;2023-04-16T02:04:40;102215.28;;;8.82;82.27
72921;BME280;61064;51.654;5.476;2023-04-16T02:07:06;102210.88;;;8.82;82.36
72921;BME280;61064;51.654;5.476;2023-04-16T02:09:36;102217.94;;;8.82;82.62
72921;BME280;61064;51.654;5.476;2023-04-16T02:12:03;102193.75;;;8.72;82.41
72921;BME280;61064;51.654;5.476;2023-04-16T02:14:29;102142.22;;;8.41;82.54
72921;BME280;61064;51.654;5.476;2023-04-16T02:16:54;102197.31;;;8.73;82.72
72921;BME280;61064;51.654;5.476;2023-04-16T02:19:19;102158.59;;;8.54;82.67
72921;BME280;61064;51.654;5.476;2023-04-16T02:21:46;102195.66;;;8.76;82.88
72921;BME280;61064;51.654;5.476;2023-04-16T02:24:11;102208.34;;;8.85;83.04
72921;BME280;61064;51.654;5.476;2023-04-16T02:26:37;102148.00;;;8.54;82.91
72921;BME280;61064;51.654;5.476;2023-04-16T02:29:02;102173.81;;;8.60;83.01
72921;BME280;61064;51.654;5.476;2023-04-16T02:31:28;102222.47;;;8.84;83.05
72921;BME280;61064;51.654;5.476;2023-04-16T02:33:53;102202.75;;;8.77;83.18
72921;BME280;61064;51.654;5.476;2023-04-16T02:36:19;102152.22;;;8.49;83.03
72921;BME280;61064;51.654;5.476;2023-04-16T02:38:44;102225.13;;;8.84;83.40
72921;BME280;61064;51.654;5.476;2023-04-16T02:41:10;102185.47;;;8.63;83.10
72921;BME280;61064;51.654;5.476;2023-04-16T02:43:35;102179.28;;;8.64;83.27
72921;BME280;61064;51.654;5.476;2023-04-16T02:46:01;102219.88;;;8.86;83.39
72921;BME280;61064;51.654;5.476;2023-04-16T02:48:26;102167.41;;;8.53;83.27
72921;BME280;61064;51.654;5.476;2023-04-16T02:50:51;102176.53;;;8.61;83.43
72921;BME280;61064;51.654;5.476;2023-04-16T02:53:17;102165.88;;;8.60;83.41
72921;BME280;61064;51.654;5.476;2023-04-16T02:55:51;102161.38;;;8.57;83.61
72921;BME280;61064;51.654;5.476;2023-04-16T02:58:17;102179.03;;;8.57;83.46
72921;BME280;61064;51.654;5.476;2023-04-16T03:00:43;102210.72;;;8.77;83.80
72921;BME280;61064;51.654;5.476;2023-04-16T03:03:08;102218.78;;;8.81;83.65
72921;BME280;61064;51.654;5.476;2023-04-16T03:05:34;102179.94;;;8.57;83.92
72921;BME280;61064;51.654;5.476;2023-04-16T03:07:59;102230.44;;;8.84;83.82
72921;BME280;61064;51.654;5.476;2023-04-16T03:10:25;102209.53;;;8.69;83.97
72921;BME280;61064;51.654;5.476;2023-04-16T03:12:50;102192.34;;;8.58;83.98
72921;BME280;61064;51.654;5.476;2023-04-16T03:15:16;102179.75;;;8.53;83.93
72921;BME280;61064;51.654;5.476;2023-04-16T03:17:41;102240.91;;;8.81;83.96
72921;BME280;61064;51.654;5.476;2023-04-16T03:20:07;102235.59;;;8.81;84.06
72921;BME280;61064;51.654;5.476;2023-04-16T03:22:33;102219.28;;;8.69;84.27
72921;BME280;61064;51.654;5.476;2023-04-16T03:24:58;102212.00;;;8.63;84.24
72921;BME280;61064;51.654;5.476;2023-04-16T03:27:23;102173.91;;;8.38;84.19
72921;BME280;61064;51.654;5.476;2023-04-16T03:29:49;102239.91;;;8.77;84.39
72921;BME280;61064;51.654;5.476;2023-04-16T03:32:14;102235.50;;;8.78;84.47
72921;BME280;61064;51.654;5.476;2023-04-16T03:34:40;102237.31;;;8.79;84.61
72921;BME280;61064;51.654;5.476;2023-04-16T03:37:05;102234.44;;;8.73;84.37
72921;BME280;61064;51.654;5.476;2023-04-16T03:39:32;102215.44;;;8.61;84.46
72921;BME280;61064;51.654;5.476;2023-04-16T03:41:58;102178.69;;;8.48;84.49
72921;BME280;61064;51.654;5.476;2023-04-16T03:44:23;102189.34;;;8.49;84.72
72921;BME280;61064;51.654;5.476;2023-04-16T03:46:48;102229.06;;;8.71;84.51
72921;BME280;61064;51.654;5.476;2023-04-16T03:49:14;102242.63;;;8.79;84.59
72921;BME280;61064;51.654;5.476;2023-04-16T03:51:39;102235.34;;;8.73;84.81
72921;BME280;61064;51.654;5.476;2023-04-16T03:54:04;102201.09;;;8.56;84.60
72921;BME280;61064;51.654;5.476;2023-04-16T03:56:30;102171.19;;;8.36;84.87
72921;BME280;61064;51.654;5.476;2023-04-16T03:58:55;102170.41;;;8.39;84.52
72921;BME280;61064;51.654;5.476;2023-04-16T04:01:20;102242.63;;;8.79;84.85
72921;BME280;61064;51.654;5.476;2023-04-16T04:03:45;102191.00;;;8.46;84.90
72921;BME280;61064;51.654;5.476;2023-04-16T04:06:11;102223.53;;;8.65;84.76
72921;BME280;61064;51.654;5.476;2023-04-16T04:08:37;102235.28;;;8.72;84.75
72921;BME280;61064;51.654;5.476;2023-04-16T04:11:03;102232.53;;;8.69;85.01
72921;BME280;61064;51.654;5.476;2023-04-16T04:13:28;102164.88;;;8.32;84.75
72921;BME280;61064;51.654;5.476;2023-04-16T04:15:53;102185.75;;;8.47;84.93
72921;BME280;61064;51.654;5.476;2023-04-16T04:18:19;102201.19;;;8.59;85.02
72921;BME280;61064;51.654;5.476;2023-04-16T04:20:44;102236.34;;;8.77;85.03
72921;BME280;61064;51.654;5.476;2023-04-16T04:23:09;102184.91;;;8.48;85.00
72921;BME280;61064;51.654;5.476;2023-04-16T04:25:35;102248.94;;;8.83;85.17
72921;BME280;61064;51.654;5.476;2023-04-16T04:28:00;102246.28;;;8.83;84.80
72921;BME280;61064;51.654;5.476;2023-04-16T04:30:26;102187.44;;;8.45;84.88
72921;BME280;61064;51.654;5.476;2023-04-16T04:32:51;102240.75;;;8.76;84.95
72921;BME280;61064;51.654;5.476;2023-04-16T04:35:16;102213.63;;;8.60;85.06
72921;BME280;61064;51.654;5.476;2023-04-16T04:37:42;102224.34;;;8.63;85.08
72921;BME280;61064;51.654;5.476;2023-04-16T04:40:08;102213.63;;;8.60;85.19
72921;BME280;61064;51.654;5.476;2023-04-16T04:42:33;102260.38;;;8.80;85.27
72921;BME280;61064;51.654;5.476;2023-04-16T04:44:59;102228.78;;;8.64;85.20
72921;BME280;61064;51.654;5.476;2023-04-16T04:47:24;102234.84;;;8.60;85.16
72921;BME280;61064;51.654;5.476;2023-04-16T04:49:49;102245.81;;;8.69;85.12
72921;BME280;61064;51.654;5.476;2023-04-16T04:52:14;102204.13;;;8.43;85.21
72921;BME280;61064;51.654;5.476;2023-04-16T04:54:41;102262.06;;;8.78;85.07
72921;BME280;61064;51.654;5.476;2023-04-16T04:57:07;102274.41;;;8.77;85.59
72921;BME280;61064;51.654;5.476;2023-04-16T04:59:32;102213.00;;;8.43;85.33
72921;BME280;61064;51.654;5.476;2023-04-16T05:01:58;102250.09;;;8.65;85.26
72921;BME280;61064;51.654;5.476;2023-04-16T05:04:24;102186.91;;;8.30;85.52
72921;BME280;61064;51.654;5.476;2023-04-16T05:06:49;102232.03;;;8.55;85.27
72921;BME280;61064;51.654;5.476;2023-04-16T05:09:15;102279.56;;;8.73;85.58
72921;BME280;61064;51.654;5.476;2023-04-16T05:11:40;102264.53;;;8.73;85.79
72921;BME280;61064;51.654;5.476;2023-04-16T05:14:06;102257.09;;;8.63;85.80
72921;BME280;61064;51.654;5.476;2023-04-16T05:16:34;102269.03;;;8.76;85.54
72921;BME280;61064;51.654;5.476;2023-04-16T05:19:00;102191.31;;;8.31;85.56
72921;BME280;61064;51.654;5.476;2023-04-16T05:21:25;102257.94;;;8.62;85.84
72921;BME280;61064;51.654;5.476;2023-04-16T05:23:51;102132.41;;;7.92;85.71
72921;BME280;61064;51.654;5.476;2023-04-16T05:26:16;102284.97;;;8.76;85.61
72921;BME280;61064;51.654;5.476;2023-04-16T05:28:41;102307.09;;;8.76;85.95
72921;BME280;61064;51.654;5.476;2023-04-16T05:31:07;102180.28;;;8.20;85.77
72921;BME280;61064;51.654;5.476;2023-04-16T05:33:32;102292.16;;;8.79;86.00
72921;BME280;61064;51.654;5.476;2023-04-16T05:35:57;102290.44;;;8.81;86.24
72921;BME280;61064;51.654;5.476;2023-04-16T05:38:23;102269.56;;;8.66;85.91
72921;BME280;61064;51.654;5.476;2023-04-16T05:40:48;102171.16;;;8.12;85.95
72921;BME280;61064;51.654;5.476;2023-04-16T05:43:13;102295.81;;;8.82;85.93
72921;BME280;61064;51.654;5.476;2023-04-16T05:45:39;102223.69;;;8.45;85.93
72921;BME280;61064;51.654;5.476;2023-04-16T05:48:08;102257.88;;;8.61;86.06
72921;BME280;61064;51.654;5.476;2023-04-16T05:50:34;102238.84;;;8.49;86.06
72921;BME280;61064;51.654;5.476;2023-04-16T05:52:59;102267.75;;;8.65;86.22
72921;BME280;61064;51.654;5.476;2023-04-16T05:55:25;102251.50;;;8.56;86.00
72921;BME280;61064;51.654;5.476;2023-04-16T05:57:50;102310.13;;;8.87;86.01
72921;BME280;61064;51.654;5.476;2023-04-16T06:00:15;102308.97;;;8.79;86.45
72921;BME280;61064;51.654;5.476;2023-04-16T06:02:41;102295.56;;;8.76;86.16
72921;BME280;61064;51.654;5.476;2023-04-16T06:05:06;102293.81;;;8.76;86.34
72921;BME280;61064;51.654;5.476;2023-04-16T06:07:32;102276.53;;;8.64;86.39
72921;BME280;61064;51.654;5.476;2023-04-16T06:09:57;102277.50;;;8.66;86.40
72921;BME280;61064;51.654;5.476;2023-04-16T06:12:23;102282.75;;;8.64;86.36
72921;BME280;61064;51.654;5.476;2023-04-16T06:14:48;102297.31;;;8.75;86.42
72921;BME280;61064;51.654;5.476;2023-04-16T06:17:13;102297.31;;;8.75;86.51
72921;BME280;61064;51.654;5.476;2023-04-16T06:19:39;102274.03;;;8.67;86.70
72921;BME280;61064;51.654;5.476;2023-04-16T06:22:05;102319.91;;;8.88;86.63
72921;BME280;61064;51.654;5.476;2023-04-16T06:24:30;102319.97;;;8.90;86.67
72921;BME280;61064;51.654;5.476;2023-04-16T06:26:56;102250.53;;;8.54;86.60
72921;BME280;61064;51.654;5.476;2023-04-16T06:29:21;102311.19;;;8.91;86.69
72921;BME280;61064;51.654;5.476;2023-04-16T06:31:47;102286.69;;;8.74;86.66
72921;BME280;61064;51.654;5.476;2023-04-16T06:34:12;102276.91;;;8.73;86.90
72921;BME280;61064;51.654;5.476;2023-04-16T06:36:37;102321.06;;;8.95;86.91
72921;BME280;61064;51.654;5.476;2023-04-16T06:39:03;102305.56;;;8.83;86.76
72921;BME280;61064;51.654;5.476;2023-04-16T06:41:29;102297.31;;;8.75;86.81
72921;BME280;61064;51.654;5.476;2023-04-16T06:43:54;102299.19;;;8.78;87.12
72921;BME280;61064;51.654;5.476;2023-04-16T06:46:20;102296.63;;;8.80;87.02
72921;BME280;61064;51.654;5.476;2023-04-16T06:48:45;102315.44;;;8.87;86.91
72921;BME280;61064;51.654;5.476;2023-04-16T06:51:11;102344.34;;;9.03;87.00
72921;BME280;61064;51.654;5.476;2023-04-16T06:53:37;102302.00;;;8.83;86.93
72921;BME280;61064;51.654;5.476;2023-04-16T06:56:04;102335.31;;;8.98;87.15
72921;BME280;61064;51.654;5.476;2023-04-16T06:58:30;102298.41;;;8.81;87.11
72921;BME280;61064;51.654;5.476;2023-04-16T07:00:55;102323.56;;;8.92;87.17
72921;BME280;61064;51.654;5.476;2023-04-16T07:03:21;102273.03;;;8.63;86.98
72921;BME280;61064;51.654;5.476;2023-04-16T07:05:46;102233.09;;;8.37;87.01
72921;BME280;61064;51.654;5.476;2023-04-16T07:08:11;102353.06;;;8.99;87.20
72921;BME280;61064;51.654;5.476;2023-04-16T07:10:37;102296.38;;;8.73;87.20
72921;BME280;61064;51.654;5.476;2023-04-16T07:13:02;102240.59;;;8.48;87.04
72921;BME280;61064;51.654;5.476;2023-04-16T07:15:27;102245.97;;;8.50;87.43
72921;BME280;61064;51.654;5.476;2023-04-16T07:17:53;102333.66;;;9.00;87.23
72921;BME280;61064;51.654;5.476;2023-04-16T07:20:18;102231.50;;;8.42;87.06
72921;BME280;61064;51.654;5.476;2023-04-16T07:22:45;102369.75;;;9.19;87.31
72921;BME280;61064;51.654;5.476;2023-04-16T07:25:11;102388.38;;;9.21;87.31
72921;BME280;61064;51.654;5.476;2023-04-16T07:27:36;102216.22;;;8.34;87.32
72921;BME280;61064;51.654;5.476;2023-04-16T07:30:01;102252.47;;;8.58;87.04
72921;BME280;61064;51.654;5.476;2023-04-16T07:32:26;102361.88;;;9.22;87.29
72921;BME280;61064;51.654;5.476;2023-04-16T07:34:52;102331.00;;;9.00;87.19
72921;BME280;61064;51.654;5.476;2023-04-16T07:37:17;102368.16;;;9.24;87.33
72921;BME280;61064;51.654;5.476;2023-04-16T07:39:42;102261.66;;;8.67;86.87
72921;BME280;61064;51.654;5.476;2023-04-16T07:42:08;102266.81;;;8.63;87.32
72921;BME280;61064;51.654;5.476;2023-04-16T07:44:33;102378.25;;;9.34;87.30
72921;BME280;61064;51.654;5.476;2023-04-16T07:46:59;102356.56;;;9.22;87.36
72921;BME280;61064;51.654;5.476;2023-04-16T07:49:25;102362.88;;;9.26;87.32
72921;BME280;61064;51.654;5.476;2023-04-16T07:51:51;102338.59;;;9.15;87.44
72921;BME280;61064;51.654;5.476;2023-04-16T07:54:16;102335.56;;;9.04;87.20
72921;BME280;61064;51.654;5.476;2023-04-16T07:56:41;102392.53;;;9.38;87.18
72921;BME280;61064;51.654;5.476;2023-04-16T07:59:07;102351.84;;;9.13;87.13
72921;BME280;61064;51.654;5.476;2023-04-16T08:01:32;102395.53;;;9.47;87.04
72921;BME280;61064;51.654;5.476;2023-04-16T08:03:57;102359.00;;;9.16;86.91
72921;BME280;61064;51.654;5.476;2023-04-16T08:06:23;102368.09;;;9.23;87.25
72921;BME280;61064;51.654;5.476;2023-04-16T08:08:50;102367.28;;;9.25;87.16
72921;BME280;61064;51.654;5.476;2023-04-16T08:11:15;102383.66;;;9.37;87.09
72921;BME280;61064;51.654;5.476;2023-04-16T08:13:41;102378.25;;;9.34;87.20
72921;BME280;61064;51.654;5.476;2023-04-16T08:16:07;102345.66;;;9.14;87.28
72921;BME280;61064;51.654;5.476;2023-04-16T08:18:33;102423.34;;;9.56;87.16
72921;BME280;61064;51.654;5.476;2023-04-16T08:20:58;102369.78;;;9.21;87.07
72921;BME280;61064;51.654;5.476;2023-04-16T08:23:24;102426.06;;;9.58;87.25
72921;BME280;61064;51.654;5.476;2023-04-16T08:25:49;102389.66;;;9.32;87.20
72921;BME280;61064;51.654;5.476;2023-04-16T08:28:16;102443.78;;;9.59;87.12
72921;BME280;61064;51.654;5.476;2023-04-16T08:30:41;102394.44;;;9.42;86.90
72921;BME280;61064;51.654;5.476;2023-04-16T08:33:06;102369.09;;;9.26;87.06
72921;BME280;61064;51.654;5.476;2023-04-16T08:35:32;102362.09;;;9.28;87.33
72921;BME280;61064;51.654;5.476;2023-04-16T08:37:57;102365.03;;;9.36;87.10
72921;BME280;61064;51.654;5.476;2023-04-16T08:40:25;102414.75;;;9.64;87.35
72921;BME280;61064;51.654;5.476;2023-04-16T08:42:53;102431.06;;;9.74;87.26
72921;BME280;61064;51.654;5.476;2023-04-16T08:45:25;102432.00;;;9.76;87.16
72921;BME280;61064;51.654;5.476;2023-04-16T08:47:51;102437.44;;;9.79;86.91
72921;BME280;61064;51.654;5.476;2023-04-16T08:50:26;102324.59;;;9.19;87.15
72921;BME280;61064;51.654;5.476;2023-04-16T08:52:58;102438.44;;;9.83;87.16
72921;BME280;61064;51.654;5.476;2023-04-16T08:55:36;102396.16;;;9.65;87.15
72921;BME280;61064;51.654;5.476;2023-04-16T08:58:07;102435.09;;;9.88;87.07
72921;BME280;61064;51.654;5.476;2023-04-16T09:00:34;102421.50;;;9.79;87.15
72921;BME280;61064;51.654;5.476;2023-04-16T09:03:01;102418.78;;;9.78;87.14
72921;BME280;61064;51.654;5.476;2023-04-16T09:05:28;102413.50;;;9.79;86.99
72921;BME280;61064;51.654;5.476;2023-04-16T09:07:53;102454.13;;;10.00;87.09
72921;BME280;61064;51.654;5.476;2023-04-16T09:10:19;102453.31;;;10.03;86.97
72921;BME280;61064;51.654;5.476;2023-04-16T09:12:44;102451.69;;;10.07;86.85
72921;BME280;61064;51.654;5.476;2023-04-16T09:15:11;102411.00;;;9.84;87.04
72921;BME280;61064;51.654;5.476;2023-04-16T09:17:37;102465.03;;;10.08;86.66
72921;BME280;61064;51.654;5.476;2023-04-16T09:20:04;102407.22;;;9.77;86.85
72921;BME280;61064;51.654;5.476;2023-04-16T09:22:30;102443.28;;;9.94;87.02
72921;BME280;61064;51.654;5.476;2023-04-16T09:24:56;102428.97;;;9.91;86.93
72921;BME280;61064;51.654;5.476;2023-04-16T09:27:21;102432.69;;;9.96;86.79
72921;BME280;61064;51.654;5.476;2023-04-16T09:29:47;102411.06;;;9.85;86.63
72921;BME280;61064;51.654;5.476;2023-04-16T09:32:13;102411.78;;;9.81;86.77
72921;BME280;61064;51.654;5.476;2023-04-16T09:37:19;102468.09;;;10.19;86.67
72921;BME280;61064;51.654;5.476;2023-04-16T09:39:55;102451.69;;;10.07;86.68
72921;BME280;61064;51.654;5.476;2023-04-16T09:42:23;102453.72;;;10.14;86.64
72921;BME280;61064;51.654;5.476;2023-04-16T09:44:49;102437.41;;;10.05;86.65
72921;BME280;61064;51.654;5.476;2023-04-16T09:47:15;102351.31;;;9.49;86.32
72921;BME280;61064;51.654;5.476;2023-04-16T09:49:41;102480.84;;;10.29;86.57
72921;BME280;61064;51.654;5.476;2023-04-16T09:52:20;102487.09;;;10.31;86.59
72921;BME280;61064;51.654;5.476;2023-04-16T09:54:56;102470.84;;;10.22;86.51
72921;BME280;61064;51.654;5.476;2023-04-16T09:57:23;102415.69;;;9.91;86.52
72921;BME280;61064;51.654;5.476;2023-04-16T10:02:29;102479.94;;;10.28;86.32
72921;BME280;61064;51.654;5.476;2023-04-16T10:04:55;102482.66;;;10.30;86.53
72921;BME280;61064;51.654;5.476;2023-04-16T10:07:21;102452.81;;;10.15;86.50
72921;BME280;61064;51.654;5.476;2023-04-16T10:09:48;102496.25;;;10.39;86.33
72921;BME280;61064;51.654;5.476;2023-04-16T10:12:14;102487.44;;;10.40;86.26
72921;BME280;61064;51.654;5.476;2023-04-16T10:14:40;102443.09;;;10.15;86.27
72921;BME280;61064;51.654;5.476;2023-04-16T10:17:09;102444.09;;;10.17;86.26
72921;BME280;61064;51.654;5.476;2023-04-16T10:19:35;102451.38;;;10.23;86.39
72921;BME280;61064;51.654;5.476;2023-04-16T10:22:01;102440.44;;;10.15;86.43
72921;BME280;61064;51.654;5.476;2023-04-16T10:24:31;102485.81;;;10.45;86.22
72921;BME280;61064;51.654;5.476;2023-04-16T10:26:58;102496.66;;;10.51;86.26
72921;BME280;61064;51.654;5.476;2023-04-16T10:29:25;102499.41;;;10.53;86.33
72921;BME280;61064;51.654;5.476;2023-04-16T10:31:52;102361.25;;;9.80;86.13
72921;BME280;61064;51.654;5.476;2023-04-16T10:34:18;102382.88;;;9.90;86.14
72921;BME280;61064;51.654;5.476;2023-04-16T10:36:48;102373.09;;;9.89;86.08
72921;BME280;61064;51.654;5.476;2023-04-16T10:39:18;102435.41;;;10.23;86.07
72921;BME280;61064;51.654;5.476;2023-04-16T10:41:44;102440.81;;;10.26;86.09
72921;BME280;61064;51.654;5.476;2023-04-16T10:44:09;102499.75;;;10.65;86.05
72921;BME280;61064;51.654;5.476;2023-04-16T10:46:38;102499.97;;;10.71;86.08
72921;BME280;61064;51.654;5.476;2023-04-16T10:49:23;102435.97;;;10.39;85.65
72921;BME280;61064;51.654;5.476;2023-04-16T10:51:56;102484.63;;;10.62;85.79
72921;BME280;61064;51.654;5.476;2023-04-16T10:54:24;102404.03;;;10.14;85.77
72921;BME280;61064;51.654;5.476;2023-04-16T10:56:51;102483.09;;;10.70;85.98
72921;BME280;61064;51.654;5.476;2023-04-16T10:59:20;102504.91;;;10.87;85.68
72921;BME280;61064;51.654;5.476;2023-04-16T11:01:48;102425.59;;;10.49;85.59
72921;BME280;61064;51.654;5.476;2023-04-16T11:07:13;102493.75;;;10.99;85.41
72921;BME280;61064;51.654;5.476;2023-04-16T11:15:04;102492.19;;;11.05;85.24
72921;BME280;61064;51.654;5.476;2023-04-16T11:17:44;102494.00;;;11.06;85.13
72921;BME280;61064;51.654;5.476;2023-04-16T11:20:24;102495.88;;;11.09;85.13
72921;BME280;61064;51.654;5.476;2023-04-16T11:22:51;102329.88;;;10.22;84.96
72921;BME280;61064;51.654;5.476;2023-04-16T11:25:25;102478.88;;;11.05;85.01
72921;BME280;61064;51.654;5.476;2023-04-16T11:27:54;102495.94;;;11.12;84.79
72921;BME280;61064;51.654;5.476;2023-04-16T11:30:33;102478.16;;;11.11;84.73
72921;BME280;61064;51.654;5.476;2023-04-16T11:33:03;102503.31;;;11.20;84.78
72921;BME280;61064;51.654;5.476;2023-04-16T11:35:28;102469.94;;;11.03;84.52
72921;BME280;61064;51.654;5.476;2023-04-16T11:37:55;102476.06;;;11.01;84.59
72921;BME280;61064;51.654;5.476;2023-04-16T11:40:21;102474.31;;;11.01;84.53
72921;BME280;61064;51.654;5.476;2023-04-16T11:42:46;102448.94;;;10.84;84.47
72921;BME280;61064;51.654;5.476;2023-04-16T11:45:11;102498.47;;;11.07;84.56
72921;BME280;61064;51.654;5.476;2023-04-16T11:47:49;102472.44;;;10.99;84.48
72921;BME280;61064;51.654;5.476;2023-04-16T11:50:28;102503.31;;;11.20;84.56
72921;BME280;61064;51.654;5.476;2023-04-16T11:53:02;102484.38;;;11.11;84.49
72921;BME280;61064;51.654;5.476;2023-04-16T11:55:28;102509.72;;;11.27;84.47
72921;BME280;61064;51.654;5.476;2023-04-16T11:57:53;102504.06;;;11.16;84.45
72921;BME280;61064;51.654;5.476;2023-04-16T12:00:19;102422.06;;;10.76;84.04
72921;BME280;61064;51.654;5.476;2023-04-16T12:02:49;102527.38;;;11.23;84.00
72921;BME280;61064;51.654;5.476;2023-04-16T12:05:30;102523.81;;;11.23;84.13
72921;BME280;61064;51.654;5.476;2023-04-16T12:08:07;102525.63;;;11.24;84.09
72921;BME280;61064;51.654;5.476;2023-04-16T12:10:35;102532.78;;;11.25;84.15
72921;BME280;61064;51.654;5.476;2023-04-16T12:13:15;102487.69;;;11.03;84.09
72921;BME280;61064;51.654;5.476;2023-04-16T12:15:52;102493.91;;;11.03;83.94
72921;BME280;61064;51.654;5.476;2023-04-16T12:18:23;102531.81;;;11.23;83.99
72921;BME280;61064;51.654;5.476;2023-04-16T12:20:51;102539.72;;;11.20;83.98
72921;BME280;61064;51.654;5.476;2023-04-16T12:23:27;102532.44;;;11.14;84.04
72921;BME280;61064;51.654;5.476;2023-04-16T12:25:54;102493.91;;;11.03;83.80
72921;BME280;61064;51.654;5.476;2023-04-16T12:28:33;102525.50;;;11.19;83.56
72921;BME280;61064;51.654;5.476;2023-04-16T12:31:00;102479.50;;;10.97;83.81
72921;BME280;61064;51.654;5.476;2023-04-16T12:33:25;102497.66;;;11.10;83.71
72921;BME280;61064;51.654;5.476;2023-04-16T12:35:51;102496.81;;;11.11;83.62
72921;BME280;61064;51.654;5.476;2023-04-16T12:38:16;102478.03;;;11.06;83.60
72921;BME280;61064;51.654;5.476;2023-04-16T12:40:42;102515.19;;;11.32;83.72
72921;BME280;61064;51.654;5.476;2023-04-16T12:43:10;102464.69;;;11.06;83.46
72921;BME280;61064;51.654;5.476;2023-04-16T12:45:37;102439.38;;;10.91;83.65
72921;BME280;61064;51.654;5.476;2023-04-16T12:48:02;102513.63;;;11.38;83.74
72921;BME280;61064;51.654;5.476;2023-04-16T12:50:32;102511.97;;;11.43;83.56
72921;BME280;61064;51.654;5.476;2023-04-16T12:52:57;102483.13;;;11.29;83.52
72921;BME280;61064;51.654;5.476;2023-04-16T12:55:24;102527.53;;;11.58;83.49
72921;BME280;61064;51.654;5.476;2023-04-16T12:57:55;102485.22;;;11.39;83.45
72921;BME280;61064;51.654;5.476;2023-04-16T13:00:21;102532.16;;;11.63;83.28
72921;BME280;61064;51.654;5.476;2023-04-16T13:02:46;102525.06;;;11.64;83.23
72921;BME280;61064;51.654;5.476;2023-04-16T13:05:12;102513.00;;;11.47;83.01
72921;BME280;61064;51.654;5.476;2023-04-16T13:07:41;102514.09;;;11.53;83.12